createdAt,value
2022-12-18T00:01:32.519Z,55.00
2022-12-18T00:04:03.949Z,54.95
2022-12-18T00:06:36.355Z,55.09
2022-12-18T00:09:04.693Z,55.06
2022-12-18T00:11:32.799Z,55.04
2022-12-18T00:14:02.707Z,55.08
2022-12-18T00:16:32.160Z,55.10
2022-12-18T00:19:07.569Z,55.09
2022-12-18T00:21:37.550Z,55.08
2022-12-18T00:24:07.711Z,54.95
2022-12-18T00:26:38.652Z,55.14
2022-12-18T00:29:16.049Z,55.13
2022-12-18T00:31:46.244Z,55.07
2022-12-18T00:34:16.698Z,55.02
2022-12-18T00:36:47.466Z,55.01
2022-12-18T00:39:16.473Z,55.21
2022-12-18T00:42:03.828Z,55.10
2022-12-18T00:44:41.980Z,55.02
2022-12-18T00:47:10.347Z,55.08
2022-12-18T00:49:40.514Z,55.00
2022-12-18T00:52:08.228Z,55.06
2022-12-18T00:54:36.827Z,54.94
2022-12-18T00:57:04.784Z,54.86
2022-12-18T00:59:33.156Z,55.06
2022-12-18T01:02:01.431Z,54.96
2022-12-18T01:04:34.247Z,54.96
2022-12-18T01:07:02.062Z,54.93
2022-12-18T01:09:30.620Z,54.97
2022-12-18T01:11:57.899Z,55.02
2022-12-18T01:14:27.208Z,54.99
2022-12-18T01:16:54.967Z,54.95
2022-12-18T01:19:23.561Z,55.00
2022-12-18T01:21:51.609Z,55.05
2022-12-18T01:24:22.300Z,55.02
2022-12-18T01:26:53.268Z,55.04
2022-12-18T01:29:25.494Z,54.99
2022-12-18T01:32:00.342Z,55.04
2022-12-18T01:34:30.675Z,55.01
2022-12-18T01:36:58.174Z,54.97
2022-12-18T01:39:25.308Z,55.07
2022-12-18T01:42:08.429Z,54.93
2022-12-18T01:44:47.838Z,54.99
2022-12-18T01:47:40.350Z,55.00
2022-12-18T01:50:32.773Z,55.02
2022-12-18T01:53:20.201Z,54.96
2022-12-18T01:55:54.100Z,55.00
2022-12-18T01:58:40.102Z,55.03
2022-12-18T02:01:10.886Z,55.04
2022-12-18T02:06:41.710Z,54.86
2022-12-18T02:09:27.855Z,54.98
2022-12-18T02:12:21.993Z,55.10
2022-12-18T02:15:04.179Z,54.95
2022-12-18T02:17:51.927Z,54.93
2022-12-18T02:20:26.787Z,54.84
2022-12-18T02:23:15.017Z,55.04
2022-12-18T02:26:21.442Z,54.92
2022-12-18T02:28:54.828Z,54.85
2022-12-18T02:31:30.014Z,54.89
2022-12-18T02:34:15.664Z,54.90
2022-12-18T02:36:46.756Z,54.90
2022-12-18T02:39:17.214Z,54.78
2022-12-18T02:41:56.919Z,54.82
2022-12-18T02:44:25.490Z,54.75
2022-12-18T02:46:55.777Z,54.72
2022-12-18T02:49:28.980Z,54.71
2022-12-18T02:52:26.183Z,54.74
2022-12-18T02:55:09.452Z,54.77
2022-12-18T02:57:40.721Z,54.73
2022-12-18T03:00:13.586Z,54.64
2022-12-18T03:02:58.654Z,54.55
2022-12-18T03:05:49.691Z,54.57
2022-12-18T03:08:25.271Z,54.56
2022-12-18T03:11:13.891Z,54.69
2022-12-18T03:13:50.451Z,54.67
2022-12-18T03:16:28.996Z,54.55
2022-12-18T03:18:58.472Z,54.52
2022-12-18T03:21:51.368Z,54.62
2022-12-18T03:24:23.068Z,54.61
2022-12-18T03:26:55.383Z,54.51
2022-12-18T03:30:08.676Z,54.51
2022-12-18T03:32:44.067Z,54.55
2022-12-18T03:35:15.851Z,54.52
2022-12-18T03:37:42.963Z,54.49
2022-12-18T03:40:10.766Z,54.54
2022-12-18T03:42:58.342Z,54.47
2022-12-18T03:45:32.891Z,54.46
2022-12-18T03:48:14.690Z,54.51
2022-12-18T03:51:03.092Z,54.45
2022-12-18T03:53:38.014Z,54.46
2022-12-18T03:56:07.257Z,54.45
2022-12-18T03:58:42.165Z,54.40
2022-12-18T04:01:19.615Z,54.42
2022-12-18T04:03:50.577Z,54.43
2022-12-18T04:06:19.859Z,54.35
2022-12-18T04:08:48.731Z,54.41
2022-12-18T04:11:18.375Z,54.34
2022-12-18T04:13:46.286Z,54.37
2022-12-18T04:16:31.309Z,54.32
2022-12-18T04:19:01.999Z,54.37
2022-12-18T04:21:30.671Z,54.32
2022-12-18T04:23:58.032Z,54.33
2022-12-18T04:26:26.174Z,54.24
2022-12-18T04:29:05.849Z,54.25
2022-12-18T04:31:32.967Z,54.18
2022-12-18T04:34:00.330Z,54.32
2022-12-18T04:36:29.266Z,54.26
2022-12-18T04:39:03.139Z,54.36
2022-12-18T04:41:32.266Z,54.26
2022-12-18T04:44:00.763Z,54.40
2022-12-18T04:46:28.101Z,54.28
2022-12-18T04:48:55.163Z,54.22
2022-12-18T04:51:26.847Z,54.25
2022-12-18T04:53:54.772Z,54.29
2022-12-18T04:56:22.482Z,54.18
2022-12-18T04:58:49.774Z,54.21
2022-12-18T05:01:21.076Z,54.24
2022-12-18T05:03:48.304Z,54.12
2022-12-18T05:06:19.613Z,54.23
2022-12-18T05:08:48.040Z,54.28
2022-12-18T05:11:21.304Z,54.07
2022-12-18T05:13:48.353Z,54.17
2022-12-18T05:16:16.671Z,54.10
2022-12-18T05:18:43.806Z,54.14
2022-12-18T05:21:10.778Z,54.02
2022-12-18T05:23:39.238Z,54.19
2022-12-18T05:26:08.875Z,54.06
2022-12-18T05:28:40.703Z,54.12
2022-12-18T05:31:08.163Z,54.03
2022-12-18T05:33:36.875Z,53.98
2022-12-18T05:36:09.567Z,54.01
2022-12-18T05:38:38.335Z,54.13
2022-12-18T05:41:06.687Z,54.13
2022-12-18T05:43:37.461Z,53.99
2022-12-18T05:46:12.697Z,54.09
2022-12-18T05:48:43.810Z,53.95
2022-12-18T05:51:16.358Z,54.11
2022-12-18T05:53:44.027Z,54.01
2022-12-18T05:56:20.889Z,54.10
2022-12-18T05:58:50.859Z,54.10
2022-12-18T06:01:21.414Z,54.05
2022-12-18T06:03:48.518Z,53.92
2022-12-18T06:06:25.755Z,53.89
2022-12-18T06:08:53.788Z,53.91
2022-12-18T06:11:23.422Z,54.13
2022-12-18T06:23:57.585Z,53.89
2022-12-18T06:26:29.477Z,53.88
2022-12-18T06:28:56.723Z,53.93
2022-12-18T06:31:23.951Z,53.98
2022-12-18T06:33:51.004Z,53.94
2022-12-18T06:36:18.012Z,53.88
2022-12-18T06:38:45.812Z,53.87
2022-12-18T06:41:16.496Z,53.90
2022-12-18T06:43:49.881Z,53.90
2022-12-18T06:46:17.267Z,53.86
2022-12-18T06:48:45.832Z,53.96
2022-12-18T06:51:23.757Z,53.80
2022-12-18T06:53:51.773Z,53.88
2022-12-18T06:56:18.849Z,53.80
2022-12-18T06:58:45.955Z,53.86
2022-12-18T07:01:16.948Z,53.88
2022-12-18T07:03:45.065Z,53.82
2022-12-18T07:06:19.384Z,53.92
2022-12-18T07:08:47.862Z,53.82
2022-12-18T07:11:15.666Z,53.75
2022-12-18T07:13:43.593Z,53.83
2022-12-18T07:16:20.866Z,53.81
2022-12-18T07:18:55.319Z,53.97
2022-12-18T07:21:23.645Z,53.94
2022-12-18T07:23:53.412Z,53.85
2022-12-18T07:26:23.095Z,53.86
2022-12-18T07:28:56.802Z,53.87
2022-12-18T07:31:25.226Z,53.91
2022-12-18T07:33:52.675Z,53.91
2022-12-18T07:36:23.005Z,53.85
2022-12-18T07:38:51.121Z,53.81
2022-12-18T07:41:21.834Z,53.85
2022-12-18T07:43:49.931Z,54.00
2022-12-18T07:46:17.962Z,53.85
2022-12-18T07:48:49.448Z,53.96
2022-12-18T07:51:21.399Z,53.91
2022-12-18T07:53:52.738Z,53.94
2022-12-18T07:56:28.673Z,53.82
2022-12-18T07:58:57.092Z,53.86
2022-12-18T08:01:28.761Z,53.94
2022-12-18T08:03:56.343Z,54.00
2022-12-18T08:06:24.664Z,54.10
2022-12-18T08:08:58.514Z,54.25
2022-12-18T08:11:30.766Z,54.35
2022-12-18T08:13:59.002Z,54.50
2022-12-18T08:16:26.127Z,54.50
2022-12-18T08:18:54.417Z,54.65
2022-12-18T08:21:30.329Z,54.67
2022-12-18T08:24:00.945Z,54.86
2022-12-18T08:26:30.751Z,54.97
2022-12-18T08:29:01.639Z,54.96
2022-12-18T08:31:31.183Z,55.10
2022-12-18T08:33:59.221Z,54.97
2022-12-18T08:36:27.673Z,55.15
2022-12-18T08:38:55.716Z,55.14
2022-12-18T08:41:23.677Z,55.20
2022-12-18T08:44:09.134Z,55.37
2022-12-18T08:46:39.858Z,55.34
2022-12-18T08:49:09.941Z,55.48
2022-12-18T08:51:39.158Z,55.55
2022-12-18T08:54:07.460Z,55.62
2022-12-18T08:56:35.347Z,55.59
2022-12-18T08:59:03.067Z,55.72
2022-12-18T09:01:30.947Z,55.79
2022-12-18T09:03:59.770Z,55.77
2022-12-18T09:06:30.233Z,55.92
2022-12-18T09:08:58.536Z,55.86
2022-12-18T09:11:28.094Z,55.85
2022-12-18T09:13:56.588Z,55.96
2022-12-18T09:16:30.390Z,55.92
2022-12-18T09:19:01.031Z,55.97
2022-12-18T09:21:35.132Z,56.11
2022-12-18T09:24:05.040Z,56.04
2022-12-18T09:26:34.436Z,56.13
2022-12-18T09:29:01.410Z,56.19
2022-12-18T09:31:28.617Z,56.25
2022-12-18T09:33:57.685Z,56.32
2022-12-18T09:36:25.015Z,56.23
2022-12-18T09:38:54.797Z,56.36
2022-12-18T09:41:45.533Z,56.35
2022-12-18T09:44:27.768Z,56.37
2022-12-18T09:47:10.653Z,56.51
2022-12-18T09:50:03.220Z,56.58
2022-12-18T09:52:37.486Z,56.63
2022-12-18T09:55:23.318Z,56.55
2022-12-18T09:57:56.159Z,56.74
2022-12-18T10:00:26.190Z,56.65
2022-12-18T10:02:58.107Z,56.62
2022-12-18T10:05:49.019Z,56.75
2022-12-18T10:09:01.419Z,56.68
2022-12-18T10:11:40.083Z,56.85
2022-12-18T10:14:46.515Z,56.74
2022-12-18T10:17:16.636Z,56.79
2022-12-18T10:19:54.328Z,57.00
2022-12-18T10:22:27.809Z,56.96
2022-12-18T10:25:17.085Z,57.07
2022-12-18T10:27:44.808Z,57.12
2022-12-18T10:30:21.066Z,57.27
2022-12-18T10:32:48.253Z,57.22
2022-12-18T10:35:23.497Z,57.31
2022-12-18T10:38:14.568Z,57.29
2022-12-18T10:40:59.829Z,57.32
2022-12-18T10:43:32.581Z,57.37
2022-12-18T10:46:11.576Z,57.41
2022-12-18T10:48:44.155Z,57.32
2022-12-18T10:51:27.211Z,57.35
2022-12-18T10:54:25.456Z,57.33
2022-12-18T10:56:52.534Z,57.40
2022-12-18T11:02:39.763Z,57.54
2022-12-18T11:05:28.818Z,57.56
2022-12-18T11:07:57.405Z,57.55
2022-12-18T11:10:37.193Z,57.63
2022-12-18T11:13:23.717Z,57.54
2022-12-18T11:15:53.463Z,57.47
2022-12-18T11:18:23.777Z,57.54
2022-12-18T11:21:14.732Z,57.42
2022-12-18T11:23:54.462Z,57.52
2022-12-18T11:26:23.033Z,57.51
2022-12-18T11:29:12.128Z,57.51
2022-12-18T11:31:39.448Z,57.54
2022-12-18T11:34:30.408Z,57.53
2022-12-18T11:37:01.382Z,57.36
2022-12-18T11:39:43.833Z,57.41
2022-12-18T11:42:35.836Z,57.56
2022-12-18T11:45:27.737Z,57.40
2022-12-18T11:48:03.569Z,57.45
2022-12-18T11:50:49.954Z,57.51
2022-12-18T11:53:17.684Z,57.53
2022-12-18T11:56:20.146Z,57.54
2022-12-18T11:58:53.608Z,57.67
2022-12-18T12:01:46.265Z,57.61
2022-12-18T12:04:44.540Z,57.67
2022-12-18T12:07:23.056Z,57.83
2022-12-18T12:10:29.447Z,57.91
2022-12-18T12:13:02.439Z,58.05
2022-12-18T12:16:10.187Z,58.23
2022-12-18T12:18:58.608Z,58.17
2022-12-18T12:21:31.889Z,58.12
2022-12-18T12:24:41.836Z,57.98
2022-12-18T12:27:23.282Z,57.96
2022-12-18T12:30:19.580Z,57.86
2022-12-18T12:33:18.765Z,58.05
2022-12-18T12:36:15.812Z,58.14
2022-12-18T12:38:53.386Z,58.14
2022-12-18T12:41:55.621Z,57.98
2022-12-18T12:44:37.184Z,57.62
2022-12-18T12:47:31.728Z,57.21
2022-12-18T12:50:16.353Z,57.22
2022-12-18T12:52:58.497Z,57.16
2022-12-18T12:55:34.289Z,56.87
2022-12-18T12:58:17.195Z,56.84
2022-12-18T13:01:16.221Z,56.81
2022-12-18T13:04:30.743Z,56.63
2022-12-18T13:07:11.853Z,56.63
2022-12-18T13:10:17.853Z,56.50
2022-12-18T13:13:11.099Z,56.44
2022-12-18T13:15:46.294Z,56.30
2022-12-18T13:18:23.936Z,56.31
2022-12-18T13:21:01.537Z,56.24
2022-12-18T13:23:38.208Z,56.14
2022-12-18T13:26:12.666Z,56.12
2022-12-18T13:28:49.089Z,55.99
2022-12-18T13:31:34.449Z,56.02
2022-12-18T13:34:27.820Z,55.89
2022-12-18T13:36:58.497Z,55.93
2022-12-18T13:39:57.933Z,55.87
2022-12-18T13:42:49.871Z,55.72
2022-12-18T13:45:43.822Z,55.63
2022-12-18T13:48:25.696Z,55.75
2022-12-18T13:51:05.076Z,55.63
2022-12-18T13:54:16.401Z,55.55
2022-12-18T13:56:49.582Z,55.34
2022-12-18T13:59:38.606Z,55.35
2022-12-18T14:02:22.651Z,55.33
2022-12-18T14:05:03.864Z,55.34
2022-12-18T14:07:41.544Z,55.33
2022-12-18T14:10:44.380Z,55.33
2022-12-18T14:13:11.115Z,55.24
2022-12-18T14:15:44.682Z,55.31
2022-12-18T14:18:23.913Z,55.24
2022-12-18T14:21:03.545Z,55.16
2022-12-18T14:23:40.398Z,55.11
2022-12-18T14:26:31.324Z,55.18
2022-12-18T14:29:02.358Z,55.15
2022-12-18T14:31:33.042Z,55.19
2022-12-18T14:34:03.226Z,55.17
2022-12-18T14:36:31.143Z,55.25
2022-12-18T14:39:02.464Z,55.22
2022-12-18T14:41:32.607Z,55.12
2022-12-18T14:44:08.146Z,55.11
2022-12-18T14:46:41.179Z,54.99
2022-12-18T14:49:34.697Z,54.92
2022-12-18T14:52:08.138Z,54.90
2022-12-18T14:57:27.951Z,54.98
2022-12-18T15:00:06.989Z,54.94
2022-12-18T15:02:37.750Z,54.81
2022-12-18T15:05:14.018Z,54.91
2022-12-18T15:07:44.315Z,54.69
2022-12-18T15:10:44.151Z,54.75
2022-12-18T15:13:24.348Z,54.83
2022-12-18T15:15:53.130Z,54.78
2022-12-18T15:18:24.866Z,54.71
2022-12-18T15:20:56.097Z,54.69
2022-12-18T15:23:30.074Z,54.65
2022-12-18T15:26:07.065Z,54.60
2022-12-18T15:29:11.391Z,54.54
2022-12-18T15:31:44.616Z,54.48
2022-12-18T15:34:15.839Z,54.60
2022-12-18T15:36:44.695Z,54.38
2022-12-18T15:39:13.393Z,54.34
2022-12-18T15:42:01.943Z,54.43
2022-12-18T15:44:29.501Z,54.38
2022-12-18T15:46:59.491Z,54.37
2022-12-18T15:49:30.051Z,54.31
2022-12-18T15:52:02.860Z,54.34
2022-12-18T15:54:49.382Z,54.35
2022-12-18T15:57:28.357Z,54.34
2022-12-18T15:59:59.596Z,54.20
2022-12-18T16:02:29.142Z,54.31
2022-12-18T16:04:58.490Z,54.31
2022-12-18T16:07:29.141Z,54.28
2022-12-18T16:09:58.753Z,54.23
2022-12-18T16:12:27.792Z,54.27
2022-12-18T16:14:56.421Z,54.32
2022-12-18T16:17:23.872Z,54.31
2022-12-18T16:19:51.315Z,54.23
2022-12-18T16:22:28.336Z,54.22
2022-12-18T16:24:57.269Z,54.27
2022-12-18T16:27:29.787Z,54.21
2022-12-18T16:29:59.286Z,54.14
2022-12-18T16:32:28.959Z,54.01
2022-12-18T16:35:04.103Z,54.08
2022-12-18T16:37:31.996Z,54.09
2022-12-18T16:39:59.058Z,54.13
2022-12-18T16:42:26.293Z,54.13
2022-12-18T16:44:54.164Z,54.11
2022-12-18T16:47:21.873Z,54.00
2022-12-18T16:49:53.024Z,53.99
2022-12-18T16:52:21.522Z,54.07
2022-12-18T16:54:49.634Z,54.07
2022-12-18T16:57:20.280Z,54.06
2022-12-18T16:59:49.513Z,54.07
2022-12-18T17:02:21.843Z,54.01
2022-12-18T17:04:53.549Z,53.99
2022-12-18T17:07:22.986Z,53.95
2022-12-18T17:09:54.309Z,54.03
2022-12-18T17:12:24.062Z,53.94
2022-12-18T17:14:53.634Z,53.95
2022-12-18T17:17:24.270Z,53.94
2022-12-18T17:19:57.974Z,54.03
2022-12-18T17:22:26.383Z,53.90
2022-12-18T17:24:55.635Z,53.98
2022-12-18T17:27:23.814Z,53.88
2022-12-18T17:29:53.737Z,53.94
2022-12-18T17:32:21.806Z,53.98
2022-12-18T17:34:51.945Z,53.89
2022-12-18T17:37:20.899Z,53.96
2022-12-18T17:39:51.244Z,54.03
2022-12-18T17:42:20.140Z,53.96
2022-12-18T17:44:47.180Z,53.94
2022-12-18T17:47:17.514Z,53.91
2022-12-18T17:49:48.208Z,53.81
2022-12-18T17:52:15.587Z,53.85
2022-12-18T17:54:46.466Z,53.87
2022-12-18T17:57:15.531Z,53.91
2022-12-18T17:59:43.850Z,53.99
2022-12-18T18:02:12.714Z,53.89
2022-12-18T18:04:41.118Z,53.92
2022-12-18T18:07:11.332Z,53.96
2022-12-18T18:09:39.345Z,53.92
2022-12-18T18:12:25.480Z,53.92
2022-12-18T18:14:55.339Z,53.86
2022-12-18T18:17:24.467Z,53.93
2022-12-18T18:20:01.764Z,53.78
2022-12-18T18:22:29.080Z,53.78
2022-12-18T18:24:56.776Z,53.78
2022-12-18T18:27:24.315Z,53.83
2022-12-18T18:29:54.911Z,53.79
2022-12-18T18:32:23.442Z,53.83
2022-12-18T18:34:55.198Z,53.78
2022-12-18T18:37:22.361Z,53.71
2022-12-18T18:39:49.384Z,53.74
2022-12-18T18:42:17.032Z,53.73
2022-12-18T18:44:49.038Z,53.72
2022-12-18T18:47:17.747Z,53.69
2022-12-18T18:49:46.612Z,53.64
2022-12-18T18:52:13.878Z,53.55
2022-12-18T18:54:57.102Z,53.64
2022-12-18T18:57:30.511Z,53.70
2022-12-18T19:00:10.714Z,53.69
2022-12-18T19:02:43.020Z,53.59
2022-12-18T19:05:10.456Z,53.65
2022-12-18T19:07:41.182Z,53.62
2022-12-18T19:10:10.502Z,53.70
2022-12-18T19:12:56.941Z,53.62
2022-12-18T19:15:25.583Z,53.64
2022-12-18T19:17:53.624Z,53.68
2022-12-18T19:20:22.908Z,53.68
2022-12-18T19:22:55.545Z,53.75
2022-12-18T19:25:40.147Z,53.66
2022-12-18T19:28:18.965Z,53.72
2022-12-18T19:30:59.364Z,53.82
2022-12-18T19:33:42.830Z,53.68
2022-12-18T19:36:20.477Z,53.81
2022-12-18T19:38:56.288Z,53.76
2022-12-18T19:41:31.082Z,53.86
2022-12-18T19:44:08.214Z,53.75
2022-12-18T19:46:42.049Z,53.82
2022-12-18T19:49:17.337Z,53.75
2022-12-18T19:51:46.932Z,53.85
2022-12-18T19:54:17.391Z,53.75
2022-12-18T19:56:46.176Z,53.74
2022-12-18T19:59:14.002Z,53.72
2022-12-18T20:01:44.561Z,53.69
2022-12-18T20:04:12.927Z,53.68
2022-12-18T20:06:47.234Z,53.68
2022-12-18T20:09:15.392Z,53.78
2022-12-18T20:11:45.502Z,53.72
2022-12-18T20:14:19.597Z,53.57
2022-12-18T20:17:01.199Z,53.58
2022-12-18T20:19:33.806Z,53.67
2022-12-18T20:22:02.526Z,53.74
2022-12-18T20:24:29.913Z,53.69
2022-12-18T20:27:00.744Z,53.71
2022-12-18T20:29:28.226Z,53.80
2022-12-18T20:31:56.601Z,53.63
2022-12-18T20:34:24.345Z,53.63
2022-12-18T20:36:52.298Z,53.67
2022-12-18T20:39:19.564Z,53.58
2022-12-18T20:41:50.066Z,53.65
2022-12-18T20:44:22.644Z,53.65
2022-12-18T20:46:55.409Z,53.69
2022-12-18T20:49:26.920Z,53.68
2022-12-18T20:52:09.511Z,53.62
2022-12-18T20:54:36.566Z,53.58
2022-12-18T20:57:06.633Z,53.52
2022-12-18T20:59:33.622Z,53.47
2022-12-18T21:02:01.236Z,53.54
2022-12-18T21:04:31.665Z,53.59
2022-12-18T21:07:02.730Z,53.66
2022-12-18T21:09:37.558Z,53.63
2022-12-18T21:12:34.978Z,53.60
2022-12-18T21:15:14.674Z,53.58
2022-12-18T21:17:44.652Z,53.52
2022-12-18T21:20:17.793Z,53.50
2022-12-18T21:22:54.985Z,53.51
2022-12-18T21:25:27.261Z,53.50
2022-12-18T21:28:02.251Z,53.63
2022-12-18T21:30:40.080Z,53.63
2022-12-18T21:33:07.504Z,53.65
2022-12-18T21:35:34.384Z,53.69
2022-12-18T21:38:02.700Z,53.70
2022-12-18T21:40:34.163Z,53.59
2022-12-18T21:43:21.025Z,53.55
2022-12-18T21:45:49.644Z,53.58
2022-12-18T21:48:16.949Z,53.59
2022-12-18T21:50:44.103Z,53.60
2022-12-18T21:53:22.426Z,53.59
2022-12-18T21:55:58.890Z,53.65
2022-12-18T21:58:26.371Z,53.67
2022-12-18T22:00:53.978Z,53.66
2022-12-18T22:03:24.222Z,53.75
2022-12-18T22:06:07.068Z,53.75
2022-12-18T22:08:36.760Z,53.68
2022-12-18T22:11:13.536Z,53.71
2022-12-18T22:13:40.665Z,53.81
2022-12-18T22:16:08.933Z,53.85
2022-12-18T22:18:36.357Z,53.82
2022-12-18T22:21:06.919Z,53.77
2022-12-18T22:23:34.875Z,53.82
2022-12-18T22:26:02.008Z,53.75
2022-12-18T22:28:51.886Z,53.81
2022-12-18T22:31:21.859Z,53.73
2022-12-18T22:33:49.489Z,53.79
2022-12-18T22:36:16.781Z,53.75
2022-12-18T22:38:47.184Z,53.73
2022-12-18T22:41:14.455Z,53.84
2022-12-18T22:43:45.557Z,53.83
2022-12-18T22:46:17.915Z,53.73
2022-12-18T22:48:45.368Z,53.75
2022-12-18T22:51:18.045Z,53.78
2022-12-18T22:53:45.712Z,53.74
2022-12-18T22:56:20.229Z,53.85
2022-12-18T22:59:09.349Z,53.69
2022-12-18T23:01:38.236Z,53.71
2022-12-18T23:04:11.448Z,53.77
2022-12-18T23:06:44.201Z,53.75
2022-12-18T23:09:20.071Z,53.72
2022-12-18T23:11:48.515Z,53.75
2022-12-18T23:14:15.653Z,53.64
2022-12-18T23:16:42.805Z,53.76
2022-12-18T23:19:12.166Z,53.71
2022-12-18T23:21:39.570Z,53.63
2022-12-18T23:24:06.897Z,53.78
2022-12-18T23:26:34.356Z,53.66
2022-12-18T23:29:01.846Z,53.75
2022-12-18T23:31:39.743Z,53.78
2022-12-18T23:34:07.640Z,53.67
2022-12-18T23:36:45.541Z,53.65
2022-12-18T23:39:26.198Z,53.66
2022-12-18T23:41:58.306Z,53.65
2022-12-18T23:44:25.746Z,53.71
2022-12-18T23:46:53.054Z,53.65
2022-12-18T23:49:20.105Z,53.66
2022-12-18T23:51:47.172Z,53.65
2022-12-18T23:54:14.356Z,53.63
2022-12-18T23:56:41.445Z,53.61
2022-12-18T23:59:08.408Z,53.63
